• Join FlightAware (Why Join?)
  • Login
  • US Flag 
03:27PM EST


 

Airport Tracker/Info


-or-


 

Live Flight TrackerFlight Track Log ✈ SWA378 ✈ 14-May-2013 ✈ KBWI - KALB

Flight Track Log - Related Links

Times and Time Zones

All times are in EDT time to prevent confusion due to time zone crossing. See the SWA378 flight status page for this flight to view local times or setup timezone preferences in your user account.

Time Position Orientation Groundspeed Altitude Reporting Facility
EDT Latitude Longitude Course Direction KTS MPH feet Rate Location/Type
09:50PM 39.1667 -76.7500 270° West 204 235 3,100  Level Potomac TRACON
09:52PM 39.1319 -76.6353 111° Southeast 275 316 7,000 2,700 Climbing Washington Center
09:53PM 39.1392 -76.4961 86° East 285 328 11,000 3,360 Climbing Washington Center
09:54PM 39.1422 -76.3622 88° East 324 373 13,800 3,120 Climbing Washington Center
09:55PM 39.1472 -76.2125 87° East 381 438 17,300 3,120 Climbing Washington Center
09:56PM 39.1500 -76.5392 270° West  Level FlightAware Approximate
09:56PM 39.1708 -76.0628 78° East 414 476 20,100  Level Washington Center
09:57PM 39.1858 -75.9103 83° East 426 490 23,200 2,760 Climbing Washington Center
09:58PM 39.2569 -75.7953 51° Northeast 395 455 25,600 2,340 Climbing Washington Center
09:59PM 39.3447 -75.6961 41° Northeast 400 460 27,900 1,680 Climbing Washington Center
10:00PM 39.4406 -75.6131 34° Northeast 400 460 29,000 540 Climbing Washington Center
10:01PM 39.5322 -75.5217 38° Northeast 411 473 29,000  Level Washington Center
10:02PM 39.6114 -75.4056 48° Northeast 416 479 29,000  Level Washington Center
10:03PM 39.6881 -75.2894 49° Northeast 416 479 29,000  Level Washington Center
10:04PM 39.7650 -75.1731 49° Northeast 421 484 29,000  Level Washington Center
10:05PM 39.8442 -75.0481 50° Northeast 437 503 29,000  Level New York Center
10:06PM 39.9211 -74.9364 48° Northeast 431 496 29,000  Level New York Center
10:07PM 40.0089 -74.8142 47° Northeast 418 481 29,000  Level New York Center
10:08PM 40.0908 -74.7322 37° Northeast 411 473 29,000  Level New York Center
10:09PM 40.1756 -74.6311 42° Northeast 406 467 29,000  Level New York Center
10:10PM 40.2667 -74.5139 44° Northeast 406 467 29,000  Level New York Center
10:11PM 40.3492 -74.4094 44° Northeast 412 474 29,000  Level New York Center
10:12PM 40.4272 -74.3153 43° Northeast 412 474 29,000  Level New York Center
10:13PM 40.5158 -74.2053 43° Northeast 405 466 29,000  Level New York Center
10:14PM 40.5981 -74.1028 43° Northeast 405 466 29,000 -1,440 Level New York Center
10:17PM 40.7739 -73.8817 44° Northeast 397 457 24,100 -1,500 Descending Boston Center
10:18PM 40.8692 -73.7686 42° Northeast 383 441 24,000 -480 Descending Boston Center
10:19PM 40.9369 -73.6792 45° Northeast 378 435 23,200 -540 Descending Boston Center
10:20PM 41.0150 -73.5872 42° Northeast 373 429 23,000 -240 Descending Boston Center
10:21PM 41.1069 -73.5667 10° North 350 403 22,800 -960 Descending Boston Center
10:22PM 41.1961 -73.5850 351° North 316 364 21,100 -1,200 Descending Boston Center
10:23PM 41.2878 -73.6003 353° North 316 364 20,500 -600 Descending Boston Center
10:24PM 41.3814 -73.6131 354° North 321 369 20,000 -300 Descending Boston Center
10:25PM 41.4708 -73.6258 354° North 326 375 19,900 -420 Descending Boston Center
10:26PM 41.5625 -73.6414 353° North 333 383 19,200 -780 Descending Boston Center
10:27PM 41.6667 -73.6544 355° North 333 383 18,400 -720 Descending Boston Center
10:28PM 41.7478 -73.6672 353° North 333 383 17,800 -660 Descending Boston Center
10:29PM 41.8517 -73.6831 354° North 333 383 17,100 -1,260 Descending Boston Center
10:30PM 41.9225 -73.6928 354° North 334 384 15,700 -1,680 Descending Boston Center
10:30PM 41.9350 -73.6931 359° North 333 383 15,400 -1,980 Descending Boston Center
10:31PM 42.0161 -73.7058 353° North 318 366 13,500 -2,040 Descending Boston Center
10:32PM 42.1119 -73.7192 354° North 321 369 11,500 -1,200 Descending Boston Center
10:33PM 42.2075 -73.7378 352° North 324 373 11,000 -840 Descending Boston Center
10:34PM 42.2844 -73.7450 356° North 268 308 9,800 -1,320 Descending Boston Center
10:35PM 42.3511 -73.7606 350° North 265 305 8,500 -1,620 Descending Boston Center
10:36PM 42.4261 -73.7678 356° North 265 305 6,800 -1,440 Descending Boston Center
10:37PM 42.4989 -73.7778 354° North 264 304 5,700 -1,560 Descending Boston Center
10:38PM 42.5633 -73.7903 352° North 233 268 3,700 -1,620 Descending Boston Center
10:39PM 42.6217 -73.7972 355° North 215 247 2,500 -1,140 Descending Boston Center
10:40PM 42.6694 -73.8039 354° North 179 206 1,600 9,900 Descending Boston Center
10:41PM 42.7544 -73.8314 347° North 226 260 23,000 9,840 Climbing Boston Center
10:42PM 42.8169 -73.8467 350° North 226 260 23,000  Level Boston Center
10:43PM 42.8792 -73.8625 349° North 226 260 23,000  Level Boston Center
10:44PM 42.8917 -73.8656 350° North 226 260 23,000  Level Boston Center